Wetterdaten: Woche 16.01.12 - 22.01.12 (KW3)
Datum Zeit Temp. Innen Temp. Aussen UV X Diff Temp. Feuchte Inne Feuchte Auss Sonnenschein Luftdruck Regen ab 0,1 Wind Sonnenschein T Regendauer Windben
16.01.2012 00:00 13,4 C -1,9 C 0,0 UV-I 0,0 C 47 % 89 % 0 % 1026,2 hPa 0,0 l/m 0,0 km/h (0 Bft) 0,00 h 0,10 h 0,0 km/h (0 Bft)
16.01.2012 01:00 13,2 C -2,5 C 0,0 UV-I 0,0 C 47 % 89 % 0 % 1026,1 hPa 0,0 l/m 0,0 km/h (0 Bft) 0,00 h 0,00 h 0,0 km/h (0 Bft)
16.01.2012 02:00 13,2 C -2,8 C 0,0 UV-I 0,0 C 47 % 90 % 0 % 1025,9 hPa 0,0 l/m 0,0 km/h (0 Bft) 0,00 h 0,07 h 0,0 km/h (0 Bft)
16.01.2012 03:00 13,1 C -2,9 C 0,0 UV-I 0,0 C 47 % 90 % 0 % 1025,9 hPa 0,0 l/m 0,0 km/h (0 Bft) 0,00 h 0,10 h 0,0 km/h (0 Bft)
16.01.2012 04:00 13,0 C -3,1 C 0,0 UV-I 0,0 C 47 % 90 % 0 % 1025,7 hPa 0,0 l/m 0,0 km/h (0 Bft) 0,00 h 0,07 h 0,0 km/h (0 Bft)
16.01.2012 05:00 12,8 C -3,1 C 0,0 UV-I 0,0 C 46 % 91 % 0 % 1026,0 hPa 0,0 l/m 0,0 km/h (0 Bft) 0,00 h 0,07 h 0,0 km/h (0 Bft)
16.01.2012 06:00 12,8 C -3,1 C 0,0 UV-I 0,0 C 46 % 91 % 0 % 1025,8 hPa 0,0 l/m 0,0 km/h (0 Bft) 0,00 h 0,03 h 0,0 km/h (0 Bft)
16.01.2012 07:00 12,7 C -3,2 C 0,0 UV-I 0,0 C 45 % 91 % 0 % 1026,0 hPa 0,0 l/m 0,0 km/h (0 Bft) 0,00 h 0,13 h 0,0 km/h (0 Bft)
16.01.2012 08:00 12,6 C -3,2 C 0,0 UV-I 0,0 C 45 % 92 % 0 % 1026,4 hPa 0,0 l/m 0,0 km/h (0 Bft) 0,00 h 0,10 h 0,0 km/h (0 Bft)
16.01.2012 09:00 12,6 C -2,9 C 0,0 UV-I 0,2 C 45 % 92 % 5 % 1026,8 hPa 0,0 l/m 0,0 km/h (0 Bft) 0,07 h 0,10 h 0,0 km/h (0 Bft)
16.01.2012 10:00 12,7 C -1,5 C 0,0 UV-I 6,2 C 45 % 92 % 100 % 1027,1 hPa 0,0 l/m 0,3 km/h (0 Bft) 1,00 h 0,07 h 1,0 km/h (0 Bft)
16.01.2012 11:00 12,8 C 0,9 C 0,1 UV-I 7,3 C 45 % 91 % 100 % 1027,7 hPa 0,0 l/m 2,0 km/h (1 Bft) 1,00 h 0,07 h 4,4 km/h (1 Bft)
16.01.2012 12:00 13,0 C 3,1 C 0,4 UV-I 5,8 C 46 % 84 % 100 % 1027,7 hPa 0,0 l/m 5,5 km/h (1 Bft) 1,00 h 0,00 h 9,0 km/h (2 Bft)
16.01.2012 13:00 13,3 C 4,1 C 0,4 UV-I 5,5 C 45 % 74 % 100 % 1027,2 hPa 0,0 l/m 5,6 km/h (1 Bft) 1,00 h 0,00 h 9,9 km/h (2 Bft)
16.01.2012 14:00 14,7 C 5,2 C 0,1 UV-I 5,4 C 43 % 66 % 100 % 1027,6 hPa 0,0 l/m 2,9 km/h (1 Bft) 1,00 h 0,00 h 5,8 km/h (2 Bft)
16.01.2012 15:00 15,5 C 4,2 C 0,0 UV-I 2,4 C 41 % 63 % 54 % 1027,8 hPa 0,0 l/m 1,2 km/h (1 Bft) 0,60 h 0,00 h 1,9 km/h (1 Bft)
16.01.2012 16:00 14,9 C 3,2 C 0,0 UV-I 0,0 C 41 % 65 % 0 % 1027,5 hPa 0,0 l/m 0,0 km/h (0 Bft) 0,00 h 0,00 h 0,3 km/h (0 Bft)
16.01.2012 17:00 14,0 C 1,2 C 0,0 UV-I 0,0 C 42 % 69 % 0 % 1027,4 hPa 0,0 l/m 0,1 km/h (0 Bft) 0,00 h 0,03 h 0,4 km/h (0 Bft)
16.01.2012 18:00 13,4 C -0,3 C 0,0 UV-I 0,0 C 43 % 74 % 0 % 1027,4 hPa 0,0 l/m 0,1 km/h (0 Bft) 0,00 h 0,03 h 0,0 km/h (0 Bft)
16.01.2012 19:00 13,1 C -1,6 C 0,0 UV-I 0,0 C 43 % 78 % 0 % 1027,5 hPa 0,0 l/m 0,0 km/h (0 Bft) 0,00 h 0,07 h 0,0 km/h (0 Bft)
16.01.2012 20:00 12,9 C -2,2 C 0,0 UV-I 0,0 C 43 % 82 % 0 % 1027,9 hPa 0,0 l/m 0,0 km/h (0 Bft) 0,00 h 0,07 h 0,0 km/h (0 Bft)
16.01.2012 21:00 12,8 C -2,6 C 0,0 UV-I 0,0 C 44 % 84 % 0 % 1028,2 hPa 0,0 l/m 0,0 km/h (0 Bft) 0,00 h 0,07 h 0,0 km/h (0 Bft)
16.01.2012 22:00 12,7 C -2,7 C 0,0 UV-I 0,0 C 44 % 85 % 0 % 1028,3 hPa 0,0 l/m 0,0 km/h (0 Bft) 0,00 h 0,07 h 0,0 km/h (0 Bft)
16.01.2012 23:00 12,6 C -3,2 C 0,0 UV-I 0,0 C 44 % 86 % 0 % 1028,3 hPa 0,0 l/m 0,0 km/h (0 Bft) 0,00 h 0,00 h 0,0 km/h (0 Bft)
17.01.2012 00:00 12,4 C -3,3 C 0,0 UV-I 0,0 C 44 % 87 % 0 % 1028,2 hPa 0,0 l/m 0,0 km/h (0 Bft) 0,00 h 0,07 h 0,0 km/h (0 Bft)
17.01.2012 01:00 12,4 C -3,5 C 0,0 UV-I 0,0 C 44 % 88 % 0 % 1028,1 hPa 0,0 l/m 0,0 km/h (0 Bft) 0,00 h 0,03 h 0,0 km/h (0 Bft)
17.01.2012 02:00 12,3 C -3,5 C 0,0 UV-I 0,0 C 44 % 88 % 0 % 1028,1 hPa 0,0 l/m 0,0 km/h (0 Bft) 0,00 h 0,07 h 0,0 km/h (0 Bft)
17.01.2012 03:00 12,3 C -3,7 C 0,0 UV-I 0,0 C 44 % 89 % 0 % 1028,2 hPa 0,0 l/m 0,0 km/h (0 Bft) 0,00 h 0,00 h 0,0 km/h (0 Bft)
17.01.2012 04:00 12,3 C -3,8 C 0,0 UV-I 0,0 C 44 % 89 % 0 % 1028,2 hPa 0,0 l/m 0,0 km/h (0 Bft) 0,00 h 0,07 h 0,0 km/h (0 Bft)
17.01.2012 05:00 12,2 C -3,8 C 0,0 UV-I 0,0 C 44 % 90 % 0 % 1028,0 hPa 0,0 l/m 0,1 km/h (0 Bft) 0,00 h 0,10 h 0,3 km/h (0 Bft)
17.01.2012 06:00 12,2 C -3,7 C 0,0 UV-I 0,0 C 44 % 90 % 0 % 1028,1 hPa 0,0 l/m 0,0 km/h (0 Bft) 0,00 h 0,03 h 0,0 km/h (0 Bft)
17.01.2012 07:00 12,0 C -3,5 C 0,0 UV-I 0,0 C 44 % 90 % 0 % 1028,5 hPa 0,0 l/m 0,2 km/h (0 Bft) 0,00 h 0,00 h 1,0 km/h (0 Bft)
17.01.2012 08:00 11,9 C -3,4 C 0,0 UV-I 0,0 C 43 % 90 % 0 % 1028,7 hPa 0,0 l/m 0,2 km/h (0 Bft) 0,00 h 0,07 h 1,0 km/h (0 Bft)
17.01.2012 09:00 11,9 C -3,1 C 0,0 UV-I 0,1 C 43 % 90 % 3 % 1029,2 hPa 0,0 l/m 2,1 km/h (1 Bft) 0,00 h 0,03 h 5,2 km/h (1 Bft)
17.01.2012 10:00 12,1 C -1,7 C 0,0 UV-I 3,0 C 44 % 91 % 84 % 1029,3 hPa 0,0 l/m 4,8 km/h (1 Bft) 0,93 h 0,03 h 8,3 km/h (2 Bft)
17.01.2012 11:00 12,3 C 0,5 C 0,0 UV-I 4,9 C 44 % 90 % 100 % 1030,0 hPa 0,0 l/m 2,4 km/h (1 Bft) 1,00 h 0,00 h 5,6 km/h (1 Bft)
17.01.2012 12:00 12,5 C 2,9 C 0,3 UV-I 5,4 C 44 % 86 % 100 % 1030,6 hPa 0,0 l/m 2,3 km/h (1 Bft) 1,00 h 0,00 h 5,7 km/h (1 Bft)
17.01.2012 13:00 12,9 C 4,6 C 0,4 UV-I 5,6 C 43 % 78 % 100 % 1029,6 hPa 0,0 l/m 1,2 km/h (1 Bft) 1,00 h 0,00 h 4,2 km/h (1 Bft)
17.01.2012 14:00 14,0 C 5,6 C 0,2 UV-I 5,3 C 42 % 68 % 100 % 1029,6 hPa 0,0 l/m 1,8 km/h (1 Bft) 1,00 h 0,00 h 3,3 km/h (1 Bft)
17.01.2012 15:00 14,6 C 5,2 C 0,0 UV-I 2,1 C 40 % 67 % 55 % 1030,0 hPa 0,1 l/m 0,0 km/h (0 Bft) 0,57 h 0,00 h 0,0 km/h (0 Bft)
17.01.2012 16:00 14,1 C 4,0 C 0,0 UV-I 0,0 C 40 % 70 % 0 % 1029,4 hPa 0,0 l/m 0,1 km/h (0 Bft) 0,00 h 0,00 h 0,5 km/h (0 Bft)
17.01.2012 17:00 13,4 C 1,9 C 0,0 UV-I 0,0 C 42 % 74 % 0 % 1029,3 hPa 0,0 l/m 0,0 km/h (0 Bft) 0,00 h 0,10 h 0,0 km/h (0 Bft)
17.01.2012 18:00 12,9 C 0,5 C 0,0 UV-I 0,0 C 43 % 78 % 0 % 1028,8 hPa 0,0 l/m 0,1 km/h (0 Bft) 0,00 h 0,10 h 1,0 km/h (0 Bft)
17.01.2012 19:00 12,7 C 0,0 C 0,0 UV-I 0,0 C 43 % 81 % 0 % 1029,4 hPa 0,0 l/m 0,1 km/h (0 Bft) 0,00 h 0,03 h 0,0 km/h (0 Bft)
17.01.2012 20:00 12,5 C -0,8 C 0,0 UV-I 0,0 C 44 % 83 % 0 % 1029,4 hPa 0,0 l/m 0,0 km/h (0 Bft) 0,00 h 0,00 h 0,0 km/h (0 Bft)
17.01.2012 21:00 12,4 C -0,8 C 0,0 UV-I 0,0 C 44 % 85 % 0 % 1029,4 hPa 0,0 l/m 0,3 km/h (0 Bft) 0,00 h 0,03 h 0,7 km/h (0 Bft)
17.01.2012 22:00 12,4 C -0,8 C 0,0 UV-I 0,0 C 44 % 85 % 0 % 1029,4 hPa 0,0 l/m 0,9 km/h (0 Bft) 0,00 h 0,00 h 2,4 km/h (1 Bft)
17.01.2012 23:00 12,3 C -0,7 C 0,0 UV-I 0,0 C 44 % 86 % 0 % 1029,4 hPa 0,0 l/m 3,1 km/h (1 Bft) 0,00 h 0,10 h 6,6 km/h (2 Bft)
18.01.2012 00:00 12,2 C -0,7 C 0,0 UV-I 0,0 C 44 % 86 % 0 % 1029,4 hPa 0,0 l/m 3,3 km/h (1 Bft) 0,00 h 0,00 h 6,4 km/h (2 Bft)
18.01.2012 01:00 12,3 C -0,9 C 0,0 UV-I 0,0 C 44 % 86 % 0 % 1029,5 hPa 0,0 l/m 3,8 km/h (1 Bft) 0,00 h 0,00 h 6,8 km/h (2 Bft)
18.01.2012 02:00 12,2 C -1,3 C 0,0 UV-I 0,0 C 44 % 87 % 0 % 1029,2 hPa 0,0 l/m 3,8 km/h (1 Bft) 0,00 h 0,10 h 6,6 km/h (2 Bft)
18.01.2012 03:00 12,2 C -1,6 C 0,0 UV-I 0,0 C 44 % 88 % 0 % 1029,1 hPa 0,0 l/m 1,7 km/h (1 Bft) 0,00 h 0,13 h 4,6 km/h (1 Bft)
18.01.2012 04:00 12,1 C -1,9 C 0,0 UV-I 0,0 C 44 % 88 % 0 % 1029,2 hPa 0,0 l/m 3,1 km/h (1 Bft) 0,00 h 0,10 h 6,0 km/h (2 Bft)
18.01.2012 05:00 12,0 C -2,1 C 0,0 UV-I 0,0 C 44 % 88 % 0 % 1029,1 hPa 0,0 l/m 3,5 km/h (1 Bft) 0,00 h 0,00 h 5,6 km/h (1 Bft)
18.01.2012 06:00 12,0 C -2,3 C 0,0 UV-I 0,0 C 44 % 89 % 0 % 1028,5 hPa 0,0 l/m 2,0 km/h (1 Bft) 0,00 h 0,00 h 4,6 km/h (1 Bft)
18.01.2012 07:00 11,9 C -2,2 C 0,0 UV-I 0,0 C 44 % 89 % 0 % 1027,9 hPa 0,0 l/m 2,8 km/h (1 Bft) 0,00 h 0,10 h 5,2 km/h (1 Bft)
18.01.2012 08:00 11,9 C -2,0 C 0,0 UV-I 0,0 C 44 % 88 % 0 % 1028,1 hPa 0,0 l/m 3,7 km/h (1 Bft) 0,00 h 0,03 h 6,3 km/h (2 Bft)
18.01.2012 09:00 11,9 C -1,6 C 0,0 UV-I 0,0 C 44 % 88 % 0 % 1028,0 hPa 0,0 l/m 3,1 km/h (1 Bft) 0,00 h 0,00 h 6,1 km/h (2 Bft)
18.01.2012 10:00 12,0 C -0,6 C 0,0 UV-I 0,6 C 43 % 88 % 18 % 1027,5 hPa 0,0 l/m 2,1 km/h (1 Bft) 0,07 h 0,00 h 4,4 km/h (1 Bft)
18.01.2012 11:00 12,3 C 1,9 C 0,1 UV-I 4,1 C 43 % 87 % 97 % 1027,7 hPa 0,0 l/m 2,3 km/h (1 Bft) 1,00 h 0,07 h 5,5 km/h (1 Bft)
18.01.2012 12:00 12,5 C 4,0 C 0,2 UV-I 1,8 C 44 % 82 % 52 % 1027,2 hPa 0,0 l/m 5,2 km/h (1 Bft) 0,07 h 0,00 h 10,8 km/h (2 Bft)
18.01.2012 13:00 12,5 C 4,4 C 0,1 UV-I 0,3 C 44 % 79 % 8 % 1026,7 hPa 0,0 l/m 9,6 km/h (2 Bft) 0,00 h 0,00 h 19,3 km/h (3 Bft)
18.01.2012 14:00 12,4 C 3,7 C 0,0 UV-I 0,0 C 45 % 82 % 0 % 1026,1 hPa 0,0 l/m 9,8 km/h (2 Bft) 0,00 h 0,13 h 17,8 km/h (3 Bft)
18.01.2012 15:00 12,2 C 3,6 C 0,0 UV-I 0,0 C 46 % 84 % 0 % 1025,4 hPa 0,0 l/m 8,4 km/h (2 Bft) 0,00 h 0,03 h 14,0 km/h (3 Bft)
18.01.2012 16:00 12,2 C 4,0 C 0,0 UV-I 0,0 C 47 % 84 % 0 % 1024,9 hPa 0,0 l/m 8,2 km/h (2 Bft) 0,00 h 0,50 h 15,2 km/h (3 Bft)
18.01.2012 17:00 12,2 C 4,2 C 0,0 UV-I 0,0 C 47 % 84 % 0 % 1024,2 hPa 0,2 l/m 6,2 km/h (2 Bft) 0,00 h 0,80 h 11,0 km/h (2 Bft)
18.01.2012 18:00 12,2 C 4,0 C 0,0 UV-I 0,0 C 48 % 87 % 0 % 1023,9 hPa 0,2 l/m 4,1 km/h (1 Bft) 0,00 h 0,43 h 7,3 km/h (2 Bft)
18.01.2012 19:00 12,2 C 4,4 C 0,0 UV-I 0,0 C 49 % 89 % 0 % 1023,6 hPa 0,1 l/m 5,6 km/h (1 Bft) 0,00 h 0,60 h 11,6 km/h (2 Bft)
18.01.2012 20:00 12,3 C 4,4 C 0,0 UV-I 0,0 C 51 % 90 % 0 % 1023,2 hPa 0,5 l/m 7,3 km/h (2 Bft) 0,00 h 0,73 h 12,9 km/h (3 Bft)
18.01.2012 21:00 12,2 C 4,5 C 0,0 UV-I 0,0 C 53 % 91 % 0 % 1022,8 hPa 0,4 l/m 9,7 km/h (2 Bft) 0,00 h 0,60 h 16,1 km/h (3 Bft)
18.01.2012 22:00 12,1 C 4,6 C 0,0 UV-I 0,0 C 54 % 92 % 0 % 1022,9 hPa 0,2 l/m 10,7 km/h (2 Bft) 0,00 h 0,47 h 16,9 km/h (3 Bft)
18.01.2012 23:00 12,2 C 4,7 C 0,0 UV-I 0,0 C 54 % 93 % 0 % 1022,6 hPa 0,1 l/m 8,5 km/h (2 Bft) 0,00 h 0,30 h 15,6 km/h (3 Bft)
19.01.2012 00:00 12,2 C 4,9 C 0,0 UV-I 0,0 C 55 % 93 % 0 % 1022,1 hPa 0,1 l/m 7,7 km/h (2 Bft) 0,00 h 0,30 h 13,7 km/h (3 Bft)
19.01.2012 01:00 12,3 C 5,0 C 0,0 UV-I 0,0 C 55 % 93 % 0 % 1021,5 hPa 0,1 l/m 7,2 km/h (2 Bft) 0,00 h 0,30 h 12,7 km/h (3 Bft)
19.01.2012 02:00 12,4 C 5,2 C 0,0 UV-I 0,0 C 56 % 93 % 0 % 1021,0 hPa 0,5 l/m 6,5 km/h (2 Bft) 0,00 h 0,70 h 10,2 km/h (2 Bft)
19.01.2012 03:00 12,3 C 5,4 C 0,0 UV-I 0,0 C 56 % 93 % 0 % 1020,1 hPa 0,6 l/m 5,7 km/h (1 Bft) 0,00 h 0,87 h 11,5 km/h (2 Bft)
19.01.2012 04:00 12,4 C 5,8 C 0,0 UV-I 0,0 C 57 % 94 % 0 % 1019,5 hPa 0,6 l/m 5,6 km/h (1 Bft) 0,00 h 0,87 h 10,8 km/h (2 Bft)
19.01.2012 05:00 12,6 C 6,2 C 0,0 UV-I 0,0 C 58 % 94 % 0 % 1018,4 hPa 0,4 l/m 6,2 km/h (2 Bft) 0,00 h 0,60 h 10,7 km/h (2 Bft)
19.01.2012 06:00 12,6 C 6,8 C 0,0 UV-I 0,0 C 59 % 94 % 0 % 1017,1 hPa 0,2 l/m 7,3 km/h (2 Bft) 0,00 h 0,50 h 12,4 km/h (3 Bft)
19.01.2012 07:00 12,7 C 7,6 C 0,0 UV-I 0,0 C 61 % 94 % 0 % 1016,2 hPa 0,7 l/m 10,2 km/h (2 Bft) 0,00 h 1,00 h 20,3 km/h (4 Bft)
19.01.2012 08:00 12,7 C 8,4 C 0,0 UV-I 0,0 C 63 % 94 % 0 % 1015,2 hPa 0,9 l/m 10,3 km/h (2 Bft) 0,00 h 1,00 h 16,6 km/h (3 Bft)
19.01.2012 09:00 12,9 C 9,0 C 0,0 UV-I 0,0 C 65 % 94 % 0 % 1014,6 hPa 0,9 l/m 10,9 km/h (2 Bft) 0,00 h 0,70 h 16,3 km/h (3 Bft)
19.01.2012 10:00 13,1 C 9,3 C 0,0 UV-I 0,0 C 66 % 96 % 0 % 1013,5 hPa 1,0 l/m 9,8 km/h (2 Bft) 0,00 h 0,80 h 16,0 km/h (3 Bft)
19.01.2012 11:00 13,3 C 10,1 C 0,0 UV-I 0,0 C 67 % 98 % 0 % 1012,6 hPa 1,1 l/m 12,7 km/h (3 Bft) 0,00 h 0,00 h 18,7 km/h (3 Bft)
19.01.2012 12:00 13,5 C 9,1 C 0,0 UV-I 0,0 C 67 % 97 % 0 % 1012,7 hPa 4,2 l/m 12,5 km/h (3 Bft) 0,00 h 0,00 h 19,1 km/h (3 Bft)
19.01.2012 13:00 13,5 C 7,4 C 0,0 UV-I 0,0 C 65 % 97 % 0 % 1012,6 hPa 2,8 l/m 2,5 km/h (1 Bft) 0,00 h 0,00 h 3,7 km/h (1 Bft)
19.01.2012 14:00 13,5 C 7,1 C 0,0 UV-I 0,0 C 64 % 98 % 1 % 1012,8 hPa 1,2 l/m 2,5 km/h (1 Bft) 0,00 h 0,00 h 5,6 km/h (1 Bft)
19.01.2012 15:00 13,6 C 7,5 C 0,0 UV-I 0,0 C 63 % 98 % 0 % 1013,5 hPa 0,0 l/m 5,7 km/h (1 Bft) 0,00 h 0,00 h 11,6 km/h (2 Bft)
19.01.2012 16:00 13,7 C 7,7 C 0,0 UV-I 0,0 C 62 % 97 % 0 % 1014,6 hPa 0,0 l/m 6,9 km/h (2 Bft) 0,00 h 0,12 h 11,0 km/h (2 Bft)
19.01.2012 17:00 13,9 C 7,3 C 0,0 UV-I 0,0 C 60 % 96 % 0 % 1015,1 hPa 0,0 l/m 6,8 km/h (2 Bft) 0,00 h 0,07 h 13,5 km/h (3 Bft)
19.01.2012 18:00 13,5 C 6,8 C 0,0 UV-I 0,0 C 59 % 96 % 0 % 1015,4 hPa 0,0 l/m 6,3 km/h (2 Bft) 0,00 h 0,00 h 11,5 km/h (2 Bft)
19.01.2012 19:00 13,3 C 6,7 C 0,0 UV-I 0,0 C 59 % 95 % 0 % 1015,6 hPa 0,0 l/m 6,6 km/h (2 Bft) 0,00 h 0,10 h 12,1 km/h (2 Bft)
19.01.2012 20:00 13,2 C 6,8 C 0,0 UV-I 0,0 C 59 % 95 % 0 % 1015,2 hPa 0,0 l/m 6,1 km/h (2 Bft) 0,00 h 0,10 h 10,3 km/h (2 Bft)
19.01.2012 21:00 13,0 C 6,6 C 0,0 UV-I 0,0 C 59 % 95 % 0 % 1014,7 hPa 0,0 l/m 6,3 km/h (2 Bft) 0,00 h 0,27 h 12,1 km/h (2 Bft)
19.01.2012 22:00 12,8 C 6,5 C 0,0 UV-I 0,0 C 60 % 95 % 0 % 1013,9 hPa 0,0 l/m 7,7 km/h (2 Bft) 0,00 h 0,23 h 13,1 km/h (3 Bft)
19.01.2012 23:00 12,7 C 6,2 C 0,0 UV-I 0,0 C 59 % 94 % 0 % 1013,1 hPa 0,0 l/m 7,2 km/h (2 Bft) 0,00 h 0,23 h 10,7 km/h (2 Bft)
20.01.2012 00:00 12,5 C 6,2 C 0,0 UV-I 0,0 C 59 % 94 % 0 % 1012,2 hPa 0,1 l/m 8,8 km/h (2 Bft) 0,00 h 0,10 h 15,7 km/h (3 Bft)
20.01.2012 01:00 12,3 C 5,2 C 0,0 UV-I 0,0 C 58 % 93 % 0 % 1012,1 hPa 1,6 l/m 10,7 km/h (2 Bft) 0,00 h 0,27 h 17,0 km/h (3 Bft)
20.01.2012 02:00 12,1 C 3,6 C 0,0 UV-I 0,0 C 56 % 95 % 0 % 1011,8 hPa 0,0 l/m 7,3 km/h (2 Bft) 0,00 h 0,00 h 16,9 km/h (3 Bft)
20.01.2012 03:00 11,9 C 4,3 C 0,0 UV-I 0,0 C 56 % 94 % 0 % 1011,7 hPa 0,0 l/m 10,7 km/h (2 Bft) 0,00 h 0,00 h 19,7 km/h (3 Bft)
20.01.2012 04:00 11,9 C 4,6 C 0,0 UV-I 0,0 C 55 % 91 % 0 % 1011,7 hPa 0,0 l/m 12,0 km/h (2 Bft) 0,00 h 0,00 h 20,2 km/h (4 Bft)
20.01.2012 05:00 11,8 C 4,4 C 0,0 UV-I 0,0 C 54 % 89 % 0 % 1012,0 hPa 0,0 l/m 12,0 km/h (2 Bft) 0,00 h 0,00 h 23,8 km/h (4 Bft)
20.01.2012 06:00 11,6 C 4,4 C 0,0 UV-I 0,0 C 53 % 88 % 0 % 1012,1 hPa 0,0 l/m 10,6 km/h (2 Bft) 0,00 h 0,00 h 20,4 km/h (4 Bft)
20.01.2012 07:00 11,6 C 4,6 C 0,0 UV-I 0,0 C 53 % 87 % 0 % 1012,4 hPa 0,0 l/m 10,6 km/h (2 Bft) 0,00 h 0,00 h 18,4 km/h (3 Bft)
20.01.2012 08:00 11,4 C 4,7 C 0,0 UV-I 0,0 C 53 % 87 % 0 % 1013,3 hPa 0,0 l/m 10,0 km/h (2 Bft) 0,00 h 0,00 h 17,0 km/h (3 Bft)
20.01.2012 09:00 11,5 C 4,8 C 0,0 UV-I 0,0 C 54 % 87 % 0 % 1013,9 hPa 0,0 l/m 10,0 km/h (2 Bft) 0,00 h 0,13 h 17,5 km/h (3 Bft)
20.01.2012 10:00 11,8 C 4,7 C 0,0 UV-I 0,0 C 54 % 89 % 0 % 1014,1 hPa 0,1 l/m 10,7 km/h (2 Bft) 0,00 h 0,53 h 17,8 km/h (3 Bft)
20.01.2012 11:00 11,9 C 4,5 C 0,0 UV-I 0,0 C 55 % 92 % 0 % 1014,3 hPa 0,5 l/m 9,5 km/h (2 Bft) 0,00 h 0,37 h 17,6 km/h (3 Bft)
20.01.2012 12:00 12,1 C 4,4 C 0,1 UV-I 0,2 C 55 % 93 % 5 % 1014,2 hPa 0,5 l/m 6,9 km/h (2 Bft) 0,00 h 0,40 h 10,0 km/h (2 Bft)
20.01.2012 13:00 12,5 C 5,5 C 0,3 UV-I 1,8 C 56 % 93 % 50 % 1013,6 hPa 0,0 l/m 8,3 km/h (2 Bft) 0,30 h 0,27 h 14,8 km/h (3 Bft)
20.01.2012 14:00 12,9 C 5,7 C 0,0 UV-I 0,1 C 54 % 89 % 2 % 1013,3 hPa 0,0 l/m 8,2 km/h (2 Bft) 0,00 h 0,13 h 17,3 km/h (3 Bft)
20.01.2012 15:00 12,8 C 5,5 C 0,0 UV-I 0,0 C 53 % 88 % 0 % 1013,2 hPa 0,0 l/m 8,9 km/h (2 Bft) 0,00 h 0,00 h 13,3 km/h (3 Bft)
20.01.2012 16:00 12,6 C 4,7 C 0,0 UV-I 0,0 C 53 % 89 % 0 % 1013,0 hPa 0,1 l/m 7,7 km/h (2 Bft) 0,00 h 0,13 h 13,3 km/h (3 Bft)
20.01.2012 17:00 12,4 C 3,1 C 0,0 UV-I 0,0 C 55 % 91 % 0 % 1013,8 hPa 1,6 l/m 3,3 km/h (1 Bft) 0,00 h 0,23 h 4,2 km/h (1 Bft)
20.01.2012 18:00 12,3 C 2,8 C 0,0 UV-I 0,0 C 55 % 93 % 0 % 1014,1 hPa 0,6 l/m 1,6 km/h (1 Bft) 0,00 h 0,63 h 2,3 km/h (1 Bft)
20.01.2012 19:00 12,4 C 2,5 C 0,0 UV-I 0,0 C 55 % 94 % 0 % 1014,5 hPa 0,0 l/m 0,7 km/h (0 Bft) 0,00 h 0,00 h 2,1 km/h (1 Bft)
20.01.2012 20:00 12,3 C 2,2 C 0,0 UV-I 0,0 C 55 % 95 % 0 % 1015,2 hPa 0,0 l/m 0,6 km/h (0 Bft) 0,00 h 0,00 h 0,8 km/h (0 Bft)
20.01.2012 21:00 12,1 C 2,3 C 0,0 UV-I 0,0 C 55 % 96 % 0 % 1015,5 hPa 0,0 l/m 1,5 km/h (1 Bft) 0,00 h 0,00 h 3,8 km/h (1 Bft)
20.01.2012 22:00 12,2 C 2,3 C 0,0 UV-I 0,0 C 55 % 96 % 0 % 1016,1 hPa 0,0 l/m 2,2 km/h (1 Bft) 0,00 h 0,00 h 4,2 km/h (1 Bft)
20.01.2012 23:00 12,2 C 2,2 C 0,0 UV-I 0,0 C 55 % 96 % 0 % 1016,2 hPa 0,1 l/m 1,4 km/h (1 Bft) 0,00 h 0,00 h 4,4 km/h (1 Bft)
21.01.2012 00:00 12,2 C 2,0 C 0,0 UV-I 0,0 C 55 % 96 % 0 % 1016,1 hPa 0,0 l/m 0,5 km/h (0 Bft) 0,00 h 0,00 h 1,5 km/h (1 Bft)
21.01.2012 01:00 12,2 C 2,1 C 0,0 UV-I 0,0 C 54 % 96 % 0 % 1015,6 hPa 0,0 l/m 1,0 km/h (0 Bft) 0,00 h 0,17 h 3,7 km/h (1 Bft)
21.01.2012 02:00 12,2 C 2,6 C 0,0 UV-I 0,0 C 54 % 97 % 0 % 1014,9 hPa 0,0 l/m 2,6 km/h (1 Bft) 0,00 h 0,00 h 6,7 km/h (2 Bft)
21.01.2012 03:00 12,3 C 3,0 C 0,0 UV-I 0,0 C 54 % 96 % 0 % 1014,3 hPa 0,1 l/m 1,3 km/h (1 Bft) 0,00 h 0,50 h 3,9 km/h (1 Bft)
21.01.2012 04:00 12,4 C 3,6 C 0,0 UV-I 0,0 C 55 % 97 % 0 % 1013,2 hPa 0,4 l/m 2,0 km/h (1 Bft) 0,00 h 0,73 h 5,0 km/h (1 Bft)
21.01.2012 05:00 12,5 C 4,0 C 0,0 UV-I 0,0 C 55 % 97 % 0 % 1011,9 hPa 1,2 l/m 2,6 km/h (1 Bft) 0,00 h 1,00 h 8,0 km/h (2 Bft)
21.01.2012 06:00 12,4 C 4,7 C 0,0 UV-I 0,0 C 56 % 98 % 0 % 1010,7 hPa 0,9 l/m 3,9 km/h (1 Bft) 0,00 h 0,97 h 9,1 km/h (2 Bft)
21.01.2012 07:00 12,4 C 5,6 C 0,0 UV-I 0,0 C 58 % 98 % 0 % 1009,0 hPa 0,2 l/m 4,9 km/h (1 Bft) 0,00 h 0,23 h 11,1 km/h (2 Bft)
21.01.2012 08:00 12,4 C 6,5 C 0,0 UV-I 0,0 C 59 % 98 % 0 % 1007,8 hPa 0,0 l/m 8,8 km/h (2 Bft) 0,00 h 0,00 h 16,0 km/h (3 Bft)
21.01.2012 09:00 12,6 C 7,4 C 0,0 UV-I 0,0 C 61 % 97 % 0 % 1006,9 hPa 0,0 l/m 12,5 km/h (3 Bft) 0,00 h 0,13 h 20,1 km/h (4 Bft)
21.01.2012 10:00 12,6 C 8,1 C 0,0 UV-I 0,0 C 63 % 97 % 0 % 1006,2 hPa 0,7 l/m 11,9 km/h (2 Bft) 0,00 h 0,87 h 20,6 km/h (4 Bft)
21.01.2012 11:00 12,8 C 8,7 C 0,0 UV-I 0,0 C 65 % 98 % 0 % 1006,0 hPa 1,0 l/m 11,4 km/h (2 Bft) 0,00 h 0,37 h 19,4 km/h (3 Bft)
21.01.2012 12:00 12,9 C 9,1 C 0,0 UV-I 0,0 C 66 % 98 % 0 % 1005,6 hPa 0,5 l/m 11,0 km/h (2 Bft) 0,00 h 0,60 h 20,9 km/h (4 Bft)
21.01.2012 13:00 13,1 C 9,4 C 0,0 UV-I 0,0 C 66 % 98 % 0 % 1004,8 hPa 0,7 l/m 9,0 km/h (2 Bft) 0,00 h 0,87 h 17,4 km/h (3 Bft)
21.01.2012 14:00 13,3 C 9,7 C 0,0 UV-I 0,0 C 67 % 97 % 0 % 1004,4 hPa 0,1 l/m 12,1 km/h (2 Bft) 0,00 h 0,30 h 18,6 km/h (3 Bft)
21.01.2012 15:00 13,6 C 9,8 C 0,0 UV-I 0,0 C 67 % 96 % 0 % 1003,9 hPa 0,6 l/m 11,8 km/h (2 Bft) 0,00 h 0,80 h 22,5 km/h (4 Bft)
21.01.2012 16:00 13,6 C 8,8 C 0,0 UV-I 0,0 C 66 % 95 % 0 % 1003,7 hPa 2,2 l/m 12,6 km/h (3 Bft) 0,00 h 0,30 h 20,8 km/h (4 Bft)
21.01.2012 17:00 13,4 C 7,8 C 0,0 UV-I 0,0 C 64 % 94 % 0 % 1004,0 hPa 0,4 l/m 10,0 km/h (2 Bft) 0,00 h 0,47 h 16,8 km/h (3 Bft)
21.01.2012 18:00 13,4 C 7,2 C 0,0 UV-I 0,0 C 63 % 94 % 0 % 1004,3 hPa 0,2 l/m 11,2 km/h (2 Bft) 0,00 h 0,43 h 19,0 km/h (3 Bft)
21.01.2012 19:00 13,2 C 7,2 C 0,0 UV-I 0,0 C 61 % 92 % 0 % 1004,3 hPa 0,0 l/m 11,0 km/h (2 Bft) 0,00 h 0,00 h 18,0 km/h (3 Bft)
21.01.2012 20:00 13,1 C 7,4 C 0,0 UV-I 0,0 C 61 % 89 % 0 % 1004,2 hPa 0,0 l/m 11,9 km/h (2 Bft) 0,00 h 0,00 h 23,4 km/h (4 Bft)
21.01.2012 21:00 13,1 C 7,5 C 0,0 UV-I 0,0 C 59 % 84 % 0 % 1004,7 hPa 0,0 l/m 12,8 km/h (3 Bft) 0,00 h 0,00 h 23,7 km/h (4 Bft)
21.01.2012 22:00 13,2 C 7,1 C 0,0 UV-I 0,0 C 57 % 84 % 0 % 1005,7 hPa 0,0 l/m 14,1 km/h (3 Bft) 0,00 h 0,00 h 24,5 km/h (4 Bft)
21.01.2012 23:00 13,1 C 7,2 C 0,0 UV-I 0,0 C 57 % 84 % 0 % 1006,3 hPa 0,0 l/m 12,7 km/h (3 Bft) 0,00 h 0,00 h 23,5 km/h (4 Bft)
22.01.2012 00:00 13,2 C 7,2 C 0,0 UV-I 0,0 C 55 % 81 % 0 % 1007,2 hPa 0,0 l/m 14,6 km/h (3 Bft) 0,00 h 0,00 h 28,6 km/h (4 Bft)
22.01.2012 01:00 13,1 C 7,1 C 0,0 UV-I 0,0 C 54 % 80 % 0 % 1007,8 hPa 0,0 l/m 15,3 km/h (3 Bft) 0,00 h 0,00 h 25,9 km/h (4 Bft)
22.01.2012 02:00 13,2 C 6,9 C 0,0 UV-I 0,0 C 54 % 81 % 0 % 1008,4 hPa 0,0 l/m 13,6 km/h (3 Bft) 0,00 h 0,00 h 20,8 km/h (4 Bft)
22.01.2012 03:00 13,2 C 6,8 C 0,0 UV-I 0,0 C 54 % 81 % 0 % 1008,7 hPa 0,0 l/m 13,1 km/h (3 Bft) 0,00 h 0,00 h 18,7 km/h (3 Bft)
22.01.2012 04:00 13,2 C 6,7 C 0,0 UV-I 0,0 C 53 % 82 % 0 % 1008,8 hPa 0,0 l/m 13,1 km/h (3 Bft) 0,00 h 0,00 h 24,1 km/h (4 Bft)
22.01.2012 05:00 13,2 C 6,7 C 0,0 UV-I 0,0 C 53 % 82 % 0 % 1008,9 hPa 0,0 l/m 13,6 km/h (3 Bft) 0,00 h 0,00 h 22,2 km/h (4 Bft)
22.01.2012 06:00 13,2 C 6,6 C 0,0 UV-I 0,0 C 53 % 82 % 0 % 1008,8 hPa 0,0 l/m 11,6 km/h (2 Bft) 0,00 h 0,00 h 19,8 km/h (3 Bft)
22.01.2012 07:00 13,1 C 6,5 C 0,0 UV-I 0,0 C 53 % 83 % 0 % 1008,3 hPa 0,0 l/m 10,1 km/h (2 Bft) 0,00 h 0,00 h 17,4 km/h (3 Bft)
22.01.2012 08:00 13,1 C 6,2 C 0,0 UV-I 0,0 C 53 % 83 % 0 % 1008,1 hPa 0,0 l/m 11,9 km/h (2 Bft) 0,00 h 0,00 h 19,5 km/h (3 Bft)
22.01.2012 09:00 13,0 C 5,9 C 0,0 UV-I 0,0 C 52 % 84 % 0 % 1008,0 hPa 0,0 l/m 11,1 km/h (2 Bft) 0,00 h 0,00 h 17,0 km/h (3 Bft)
22.01.2012 10:00 13,1 C 5,8 C 0,0 UV-I 0,0 C 52 % 85 % 0 % 1007,6 hPa 0,0 l/m 12,9 km/h (3 Bft) 0,00 h 0,23 h 19,1 km/h (3 Bft)
22.01.2012 11:00 13,0 C 5,6 C 0,0 UV-I 0,0 C 53 % 89 % 0 % 1006,8 hPa 0,2 l/m 12,2 km/h (2 Bft) 0,00 h 0,67 h 21,4 km/h (4 Bft)
22.01.2012 12:00 13,1 C 5,4 C 0,0 UV-I 0,0 C 55 % 93 % 0 % 1006,1 hPa 0,4 l/m 13,4 km/h (3 Bft) 0,00 h 0,63 h 23,5 km/h (4 Bft)
22.01.2012 13:00 13,0 C 6,1 C 0,0 UV-I 0,0 C 55 % 92 % 0 % 1005,3 hPa 0,0 l/m 12,4 km/h (3 Bft) 0,00 h 0,13 h 19,7 km/h (3 Bft)
22.01.2012 14:00 13,1 C 7,1 C 0,0 UV-I 0,0 C 56 % 91 % 0 % 1005,0 hPa 0,0 l/m 12,1 km/h (2 Bft) 0,00 h 0,73 h 21,0 km/h (4 Bft)
22.01.2012 15:00 13,1 C 8,2 C 0,0 UV-I 0,0 C 57 % 88 % 0 % 1004,8 hPa 0,0 l/m 12,3 km/h (3 Bft) 0,00 h 0,00 h 22,6 km/h (4 Bft)
22.01.2012 16:00 13,3 C 9,2 C 0,0 UV-I 0,0 C 56 % 81 % 0 % 1005,0 hPa 0,1 l/m 16,8 km/h (3 Bft) 0,00 h 0,03 h 32,6 km/h (5 Bft)
22.01.2012 17:00 13,6 C 9,4 C 0,0 UV-I 0,0 C 55 % 78 % 0 % 1005,6 hPa 0,0 l/m 19,0 km/h (3 Bft) 0,00 h 0,33 h 33,7 km/h (5 Bft)
22.01.2012 18:00 13,6 C 8,9 C 0,0 UV-I 0,0 C 54 % 80 % 0 % 1006,8 hPa 0,0 l/m 18,3 km/h (3 Bft) 0,00 h 0,53 h 29,2 km/h (5 Bft)
22.01.2012 19:00 13,5 C 8,1 C 0,0 UV-I 0,0 C 54 % 80 % 0 % 1008,5 hPa 0,0 l/m 16,0 km/h (3 Bft) 0,00 h 0,23 h 25,5 km/h (4 Bft)
22.01.2012 20:00 13,4 C 7,3 C 0,0 UV-I 0,0 C 54 % 80 % 0 % 1010,0 hPa 0,0 l/m 10,6 km/h (2 Bft) 0,00 h 0,00 h 19,4 km/h (3 Bft)
22.01.2012 21:00 13,4 C 6,6 C 0,0 UV-I 0,0 C 54 % 84 % 0 % 1011,3 hPa 0,0 l/m 8,9 km/h (2 Bft) 0,00 h 0,00 h 17,3 km/h (3 Bft)
22.01.2012 22:00 13,3 C 5,9 C 0,0 UV-I 0,0 C 54 % 86 % 0 % 1012,2 hPa 0,0 l/m 6,8 km/h (2 Bft) 0,00 h 0,00 h 12,1 km/h (2 Bft)
22.01.2012 23:00 13,2 C 5,4 C 0,0 UV-I 0,0 C 54 % 87 % 0 % 1012,8 hPa 0,0 l/m 5,2 km/h (1 Bft) 0,00 h 0,00 h 9,0 km/h (2 Bft)
Min-Datum _ 20.01.12 17.01.12 16.01.12 16.01.12 17.01.12 16.01.12 16.01.12 21.01.12 - 16.01.12 - - 16.01.12
_ Min-Zeit 08:38 05:12 00:00 00:00 15:48 14:58 00:00 16:04 - 00:00 - - 00:00
Minimum _ 11,3 C -4,1 C 0,0 UV-I 0,0 C 39 % 61 % 0 % 1003,2 hPa - 0,0 km/h (0 Bft) - - 0,0 km/h (0 Bft)
Max-Datum _ 16.01.12 19.01.12 20.01.12 16.01.12 19.01.12 19.01.12 16.01.12 17.01.12 19.01.12 22.01.12 16.01.12 16.01.12 22.01.12
_ Max-Zeit 15:12 11:52 13:44 11:18 11:30 10:30 10:02 12:04 12:14 18:08 09:56 00:08 17:52
Maximum _ 15,7 C 10,5 C 0,6 UV-I 8,5 C 67 % 98 % 100 % 1030,6 hPa 4,2 l/m 23,7 km/h
W (4 Bft)
0,03 h 0,03 h 77,5 km/h
W-SW (9 Bft)
Durchschnitt _ 12,7 C 3,5 C 0,0 UV-I 0,4 C 52 % 88 % 8 % 1018,3 hPa #33,0 l/m 6,1 km/h (2 Bft) #12:36 h #31:31 h 10,9 km/h (2 Bft)
© 2012 W. Hausmann